Clayton, Ohio
Current Conditions -  °F | °C
As of 5:56 AM on Saturday 20 Dec 2014 (Local Time) from KDAY Reporting Station
Overcast Overcast  
Wind Chill: 29°   Ceiling: 1800
Heat Index: 29°   Visibility: 8mi
Dew Point: 23°   Wind: 3mph
Humidity: 78%   Direction: 60°ENE
Pressure: 30.25"   Gusts: NA
Location:  39.86°N, 84.36°W
Report Text: KDAY 201056Z 06003KT 8SM OVC018 M02/M05 A3025 RMK AO2 SLP256 T10171050
Loading
Personal Weather Stations






























Interactive Weather Map New forecast layout! Learn more

10-Day Weather Forecast

Advertisements
Track Severe Weather on mobile